Time;durP1;ratioP1;P1;durP2;ratioP2;P2;SDS_P1;SDS_P2;PMS_P1;PMS_P2;Temp;Humidity;BMP_temperature;BMP_pressure;BME280_temperature;BME280_humidity;BME280_pressure;Samples;Min_cycle;Max_cycle;Signal;HPM_P1;HPM_P2
2023/08/30 00:00:40;;;;;;;10.57;2.38;;;13.00;99.90;;;;;;5051112;28;20040;-89
2023/08/30 00:03:06;;;;;;;13.73;3.33;;;13.00;99.90;;;;;;5053430;28;20033;-89
2023/08/30 00:05:32;;;;;;;10.73;2.50;;;13.00;99.90;;;;;;5051689;28;20033;-89
2023/08/30 00:07:58;;;;;;;12.65;2.60;;;13.00;99.90;;;;;;5053388;28;20021;-89
2023/08/30 00:10:23;;;;;;;14.73;3.90;;;13.00;99.90;;;;;;5052725;28;20115;-89
2023/08/30 00:12:49;;;;;;;8.90;2.58;;;13.00;99.90;;;;;;5051591;28;20132;-89
2023/08/30 00:15:15;;;;;;;10.38;3.08;;;13.00;99.90;;;;;;5051046;28;20068;-89
2023/08/30 00:17:41;;;;;;;8.32;2.92;;;12.90;99.90;;;;;;5052683;28;20074;-89
2023/08/30 00:20:08;;;;;;;8.77;2.80;;;13.00;99.90;;;;;;5051450;28;20044;-87
2023/08/30 00:22:35;;;;;;;16.42;2.75;;;12.90;99.90;;;;;;5051208;28;20663;-89
2023/08/30 00:25:01;;;;;;;8.90;2.55;;;12.90;99.90;;;;;;5050959;28;20078;-88
2023/08/30 00:27:27;;;;;;;6.97;2.40;;;12.80;99.90;;;;;;5050525;28;20471;-88
2023/08/30 00:29:52;;;;;;;11.43;2.42;;;12.80;99.90;;;;;;5050580;28;20037;-88
2023/08/30 00:32:18;;;;;;;13.65;2.15;;;12.90;99.90;;;;;;5050627;28;20035;-88
2023/08/30 00:34:43;;;;;;;6.30;1.65;;;12.90;99.90;;;;;;5050368;28;20436;-88
2023/08/30 00:37:09;;;;;;;10.60;1.75;;;12.90;99.90;;;;;;5052026;28;20028;-88
2023/08/30 00:39:38;;;;;;;6.45;1.40;;;12.80;99.90;;;;;;5050357;28;20025;-88
2023/08/30 00:42:07;;;;;;;3.88;1.20;;;12.80;99.90;;;;;;5050452;28;20021;-87
2023/08/30 00:44:33;;;;;;;5.05;1.10;;;12.70;99.90;;;;;;5051782;28;20129;-87
2023/08/30 00:47:00;;;;;;;4.97;1.00;;;12.80;99.90;;;;;;5050675;28;20056;-87
2023/08/30 00:49:25;;;;;;;5.50;1.10;;;12.70;99.90;;;;;;5050358;28;20476;-88
2023/08/30 00:51:52;;;;;;;7.32;1.55;;;12.70;99.90;;;;;;5050298;28;20029;-88
2023/08/30 00:54:18;;;;;;;2.38;1.02;;;12.60;99.90;;;;;;5050385;28;20074;-88
2023/08/30 00:56:43;;;;;;;7.97;1.33;;;12.60;99.90;;;;;;5051453;28;20021;-88
2023/08/30 00:59:10;;;;;;;8.40;2.17;;;12.60;99.90;;;;;;5051555;28;20025;-88
2023/08/30 01:01:35;;;;;;;5.07;1.17;;;12.60;99.90;;;;;;5051014;28;20029;-88
2023/08/30 01:04:02;;;;;;;9.45;1.50;;;12.70;99.90;;;;;;5051257;28;20029;-88
2023/08/30 01:06:27;;;;;;;4.80;0.90;;;12.60;99.90;;;;;;5051311;28;20033;-88
2023/08/30 01:08:53;;;;;;;10.95;1.60;;;12.70;99.90;;;;;;5051184;28;20031;-88
2023/08/30 01:11:24;;;;;;;12.98;1.88;;;12.70;99.90;;;;;;5053695;28;20028;-88
2023/08/30 01:14:08;;;;;;;;;;;12.70;99.90;;;;;;5050514;28;20106;-88
2023/08/30 01:16:38;;;;;;;7.07;1.40;;;12.70;99.90;;;;;;5050979;28;19909;-88
2023/08/30 01:19:26;;;;;;;8.93;1.50;;;12.70;99.90;;;;;;5050147;28;20027;-88
2023/08/30 01:22:07;;;;;;;3.00;1.20;;;12.70;99.90;;;;;;5049979;28;20029;-87
2023/08/30 01:24:48;;;;;;;7.50;1.52;;;12.60;99.90;;;;;;5049912;28;20476;-88
2023/08/30 01:27:16;;;;;;;11.30;1.50;;;12.60;99.90;;;;;;5051100;28;20029;-88
2023/08/30 01:29:45;;;;;;;7.47;1.48;;;12.60;99.90;;;;;;5049511;28;20471;-88
2023/08/30 01:32:12;;;;;;;7.85;1.73;;;12.60;99.90;;;;;;5049731;28;20025;-88
2023/08/30 01:34:39;;;;;;;3.50;1.20;;;12.60;99.90;;;;;;5051133;28;20044;-89
2023/08/30 01:37:08;;;;;;;4.72;1.40;;;12.60;99.90;;;;;;5050019;28;20060;-88
2023/08/30 01:39:36;;;;;;;5.53;1.50;;;12.60;99.90;;;;;;5049637;28;20029;-88
2023/08/30 01:42:03;;;;;;;6.13;1.27;;;12.50;99.90;;;;;;5049492;28;20111;-88
2023/08/30 01:44:30;;;;;;;4.22;1.10;;;12.50;99.90;;;;;;5049114;28;20108;-88
2023/08/30 01:47:00;;;;;;;5.00;1.67;;;12.50;99.90;;;;;;5050825;28;20468;-88
2023/08/30 01:49:27;;;;;;;8.65;1.77;;;12.50;99.90;;;;;;5049617;28;20029;-88
2023/08/30 01:51:53;;;;;;;9.80;2.13;;;12.40;99.90;;;;;;5050546;28;20052;-89
2023/08/30 01:54:20;;;;;;;5.55;1.40;;;12.40;99.90;;;;;;5049012;28;20116;-88
2023/08/30 01:56:47;;;;;;;6.25;2.13;;;12.40;99.90;;;;;;5050722;28;20483;-88
2023/08/30 01:59:13;;;;;;;6.82;1.63;;;12.30;99.90;;;;;;5050256;28;20029;-88
2023/08/30 02:01:38;;;;;;;7.28;1.70;;;12.30;99.90;;;;;;5050289;28;20032;-88
2023/08/30 02:04:04;;;;;;;6.47;1.67;;;12.40;99.90;;;;;;5050476;28;20029;-88
2023/08/30 02:06:42;;;;;;;7.90;1.80;;;12.30;99.90;;;;;;5050304;28;20108;-88
2023/08/30 02:09:41;;;;;;;9.50;2.25;;;12.30;99.90;;;;;;5049266;28;20125;-88
2023/08/30 02:12:14;;;;;;;2.25;1.20;;;12.30;99.90;;;;;;5049014;28;20021;-87
2023/08/30 02:14:46;;;;;;;5.70;1.58;;;12.30;99.90;;;;;;5050125;28;20055;-89
2023/08/30 02:17:14;;;;;;;5.43;1.42;;;12.20;99.90;;;;;;5049154;28;20132;-88
2023/08/30 02:19:41;;;;;;;8.73;1.90;;;12.30;99.90;;;;;;5049682;28;20032;-88
2023/08/30 02:22:07;;;;;;;7.25;1.63;;;12.20;99.90;;;;;;5050395;28;20028;-88
2023/08/30 02:24:32;;;;;;;9.27;1.63;;;12.20;99.90;;;;;;5050849;28;20455;-88
2023/08/30 02:26:58;;;;;;;5.78;1.27;;;12.20;99.90;;;;;;5051803;28;20036;-87
2023/08/30 02:29:23;;;;;;;9.27;1.65;;;12.20;99.90;;;;;;5051973;28;20029;-88
2023/08/30 02:31:49;;;;;;;7.43;1.70;;;12.10;99.90;;;;;;5050830;28;20022;-88
2023/08/30 02:34:15;;;;;;;15.55;2.00;;;12.10;99.90;;;;;;5052690;28;20028;-88
2023/08/30 02:36:40;;;;;;;7.13;1.60;;;12.10;99.90;;;;;;5049524;28;20025;-88
2023/08/30 02:39:06;;;;;;;7.22;1.38;;;12.10;99.90;;;;;;5050064;28;20521;-88
2023/08/30 02:41:32;;;;;;;9.35;1.40;;;12.10;99.90;;;;;;5049020;28;20025;-88
2023/08/30 02:43:57;;;;;;;8.20;1.48;;;12.00;99.90;;;;;;5049284;28;20555;-89
2023/08/30 02:46:23;;;;;;;8.48;1.65;;;12.00;99.90;;;;;;5050569;28;20045;-88
2023/08/30 02:48:48;;;;;;;6.57;1.70;;;12.00;99.90;;;;;;5052119;28;20036;-89
2023/08/30 02:51:14;;;;;;;5.22;2.08;;;12.00;99.90;;;;;;5052750;28;20064;-89
2023/08/30 02:53:40;;;;;;;8.18;1.83;;;12.00;99.90;;;;;;5053125;28;20025;-89
2023/08/30 02:56:05;;;;;;;7.85;2.00;;;12.00;99.90;;;;;;5052088;28;20029;-89
2023/08/30 02:58:31;;;;;;;11.77;1.73;;;11.90;99.90;;;;;;5054680;28;20429;-88
2023/08/30 03:00:56;;;;;;;4.30;1.60;;;11.90;99.90;;;;;;5053650;28;20036;-89
2023/08/30 03:03:22;;;;;;;6.72;2.30;;;11.90;99.90;;;;;;5053611;28;20029;-89
2023/08/30 03:05:48;;;;;;;10.77;1.85;;;11.90;99.90;;;;;;5052321;28;20093;-89
2023/08/30 03:08:13;;;;;;;8.15;2.10;;;11.90;99.90;;;;;;5053124;28;20048;-89
2023/08/30 03:10:39;;;;;;;7.60;1.50;;;11.90;99.90;;;;;;5052000;28;20467;-88
2023/08/30 03:13:05;;;;;;;6.47;1.50;;;11.90;99.90;;;;;;5051976;28;20052;-90
2023/08/30 03:15:32;;;;;;;4.30;1.10;;;11.90;99.90;;;;;;5053213;28;20037;-88
2023/08/30 03:17:59;;;;;;;7.80;1.77;;;11.90;99.90;;;;;;5053261;28;20067;-88
2023/08/30 03:20:24;;;;;;;3.80;1.20;;;11.90;99.90;;;;;;5052748;28;20057;-89
2023/08/30 03:22:50;;;;;;;5.45;1.05;;;11.80;99.90;;;;;;5052896;28;20036;-88
2023/08/30 03:25:16;;;;;;;5.90;1.27;;;11.80;99.90;;;;;;5053467;28;20040;-88
2023/08/30 03:27:43;;;;;;;3.40;1.30;;;11.80;99.90;;;;;;5053403;28;20379;-88
2023/08/30 03:30:10;;;;;;;5.45;1.50;;;11.80;99.90;;;;;;5053124;28;20054;-88
2023/08/30 03:32:36;;;;;;;6.78;1.77;;;11.80;99.90;;;;;;5053161;28;20051;-89
2023/08/30 03:35:03;;;;;;;6.38;1.55;;;11.80;99.90;;;;;;5052010;28;20041;-89
2023/08/30 03:37:29;;;;;;;11.57;2.05;;;11.80;99.90;;;;;;5051776;28;20021;-88
2023/08/30 03:39:54;;;;;;;5.80;1.70;;;11.80;99.90;;;;;;5051761;28;20116;-88
2023/08/30 03:42:20;;;;;;;5.30;1.35;;;11.80;99.90;;;;;;5051973;28;20467;-88
2023/08/30 03:44:46;;;;;;;8.73;3.28;;;11.70;99.90;;;;;;5051842;28;20057;-88
2023/08/30 03:47:11;;;;;;;10.60;2.17;;;11.70;99.90;;;;;;5052204;28;20025;-89
2023/08/30 03:49:37;;;;;;;4.03;1.52;;;11.70;99.90;;;;;;5035814;28;20451;-88
2023/08/30 03:52:03;;;;;;;6.75;1.58;;;11.70;99.90;;;;;;5052284;28;20021;-88
2023/08/30 03:54:28;;;;;;;10.18;1.80;;;11.70;99.90;;;;;;5051638;28;20033;-87
2023/08/30 03:56:54;;;;;;;11.10;2.00;;;11.60;99.90;;;;;;5052728;27;20037;-88
2023/08/30 03:59:21;;;;;;;10.50;1.38;;;11.60;99.90;;;;;;5051549;28;20022;-89
2023/08/30 04:01:47;;;;;;;7.38;1.67;;;11.60;99.90;;;;;;5050622;28;20029;-88
2023/08/30 04:04:12;;;;;;;9.07;1.20;;;11.60;99.90;;;;;;5052626;28;20044;-88
2023/08/30 04:06:38;;;;;;;10.75;1.50;;;11.70;99.90;;;;;;5051356;28;20059;-89
2023/08/30 04:09:04;;;;;;;15.35;2.20;;;11.70;99.90;;;;;;5050867;28;20385;-89
2023/08/30 04:11:29;;;;;;;8.60;1.40;;;11.70;99.90;;;;;;5051383;28;20036;-88
2023/08/30 04:13:55;;;;;;;8.52;1.30;;;11.70;99.90;;;;;;5051216;28;20028;-89
2023/08/30 04:16:20;;;;;;;6.82;1.40;;;11.70;99.90;;;;;;5052544;28;20059;-88
2023/08/30 04:18:46;;;;;;;11.02;2.15;;;11.70;99.90;;;;;;5052229;28;20387;-88
2023/08/30 04:21:12;;;;;;;9.48;1.70;;;11.70;99.90;;;;;;5052855;28;20031;-89
2023/08/30 04:23:38;;;;;;;9.60;1.52;;;11.70;99.90;;;;;;5052499;28;20021;-88
2023/08/30 04:26:03;;;;;;;9.95;1.58;;;11.70;99.90;;;;;;5051430;28;20025;-89
2023/08/30 04:28:29;;;;;;;7.60;1.42;;;11.70;99.90;;;;;;5051629;28;20029;-88
2023/08/30 04:30:55;;;;;;;5.32;1.38;;;11.70;99.90;;;;;;5051238;28;20028;-89
2023/08/30 04:33:21;;;;;;;12.20;1.63;;;11.70;99.90;;;;;;5050876;28;20021;-89
2023/08/30 04:35:51;;;;;;;12.55;1.55;;;11.70;99.90;;;;;;5051798;28;20119;-89
2023/08/30 04:38:16;;;;;;;15.80;2.78;;;11.70;99.90;;;;;;5050758;28;20491;-88
2023/08/30 04:40:42;;;;;;;9.85;1.85;;;11.70;99.90;;;;;;5052775;28;20044;-88
2023/08/30 04:43:08;;;;;;;9.38;3.13;;;11.70;99.90;;;;;;5052415;28;20033;-88
2023/08/30 04:45:35;;;;;;;4.90;1.48;;;11.70;99.90;;;;;;5051663;28;20064;-88
2023/08/30 04:48:00;;;;;;;4.93;1.40;;;11.70;99.90;;;;;;5050665;28;20361;-88
2023/08/30 04:50:26;;;;;;;7.32;1.40;;;11.70;99.90;;;;;;5051378;28;20139;-88
2023/08/30 04:52:51;;;;;;;5.00;1.33;;;11.70;99.90;;;;;;5057462;28;20476;-89
2023/08/30 04:55:17;;;;;;;8.05;1.85;;;11.70;99.90;;;;;;5055455;28;20037;-88
2023/08/30 04:57:47;;;;;;;6.75;1.58;;;11.70;99.90;;;;;;5053784;28;20086;-88
2023/08/30 05:00:13;;;;;;;7.95;1.30;;;11.70;99.90;;;;;;5051185;28;20025;-88
2023/08/30 05:02:40;;;;;;;7.40;2.05;;;11.70;99.90;;;;;;5052022;28;20017;-89
2023/08/30 05:05:07;;;;;;;6.18;0.90;;;11.60;99.90;;;;;;5051884;28;20025;-88
2023/08/30 05:07:32;;;;;;;5.65;0.95;;;11.60;99.90;;;;;;5051656;28;20035;-88
2023/08/30 05:09:58;;;;;;;2.47;0.63;;;11.60;99.90;;;;;;5050423;28;20115;-88
2023/08/30 05:12:23;;;;;;;4.40;0.70;;;11.60;99.90;;;;;;5050176;28;20029;-89
2023/08/30 05:14:49;;;;;;;5.55;1.20;;;11.50;99.90;;;;;;5049022;28;20170;-89
2023/08/30 05:17:15;;;;;;;5.25;1.13;;;11.50;99.90;;;;;;5050237;28;20058;-89
2023/08/30 05:19:40;;;;;;;8.63;1.20;;;11.50;99.90;;;;;;5051277;28;20150;-88
2023/08/30 05:22:06;;;;;;;4.45;0.90;;;11.50;99.90;;;;;;5049879;28;20029;-88
2023/08/30 05:24:31;;;;;;;5.53;1.65;;;11.50;99.90;;;;;;5051102;28;20033;-88
2023/08/30 05:26:57;;;;;;;7.20;1.13;;;11.50;99.90;;;;;;5050035;28;20029;-87
2023/08/30 05:29:23;;;;;;;5.65;1.48;;;11.50;99.90;;;;;;5051021;28;20035;-89
2023/08/30 05:31:48;;;;;;;5.60;1.00;;;11.50;99.90;;;;;;5051040;28;20096;-87
2023/08/30 05:34:14;;;;;;;6.32;1.00;;;11.50;99.90;;;;;;5051836;28;20070;-87
2023/08/30 05:36:39;;;;;;;5.68;1.10;;;11.50;99.90;;;;;;5053788;28;20046;-88
2023/08/30 05:39:06;;;;;;;3.97;1.08;;;11.50;99.90;;;;;;5052449;28;20395;-88
2023/08/30 05:41:31;;;;;;;6.32;1.30;;;11.60;99.90;;;;;;5051514;28;20025;-88
2023/08/30 05:43:57;;;;;;;6.57;1.25;;;11.60;99.90;;;;;;5050613;28;20028;-88
2023/08/30 05:46:23;;;;;;;3.25;1.25;;;11.60;99.90;;;;;;5050183;28;20053;-88
2023/08/30 05:48:49;;;;;;;3.95;1.10;;;11.60;99.90;;;;;;5049546;28;20058;-88
2023/08/30 05:51:15;;;;;;;10.55;2.47;;;11.60;99.90;;;;;;5049495;28;20391;-89
2023/08/30 05:53:41;;;;;;;2.35;1.23;;;11.60;99.90;;;;;;5050670;28;20028;-88
2023/08/30 05:56:06;;;;;;;5.55;1.40;;;11.60;99.90;;;;;;5049474;28;20119;-89
2023/08/30 05:58:32;;;;;;;3.75;0.95;;;11.70;99.90;;;;;;5049807;28;20021;-88
2023/08/30 06:01:00;;;;;;;5.43;0.98;;;11.60;99.90;;;;;;5049526;28;20029;-89
2023/08/30 06:03:25;;;;;;;5.20;1.13;;;11.70;99.90;;;;;;5049018;28;20028;-88
2023/08/30 06:05:53;;;;;;;4.72;1.40;;;11.70;99.90;;;;;;5049235;28;20419;-88
2023/08/30 06:08:19;;;;;;;3.33;1.00;;;11.70;99.90;;;;;;5049198;28;20037;-88
2023/08/30 06:10:45;;;;;;;2.92;0.98;;;11.70;99.90;;;;;;5050712;28;20498;-89
2023/08/30 06:13:10;;;;;;;3.83;0.90;;;11.70;99.90;;;;;;5050294;28;20077;-88
2023/08/30 06:15:37;;;;;;;3.67;0.95;;;11.80;99.90;;;;;;5050152;28;20037;-88
2023/08/30 06:18:04;;;;;;;3.42;1.00;;;11.80;99.90;;;;;;5049052;28;20032;-88
2023/08/30 06:20:29;;;;;;;5.70;1.10;;;11.80;99.90;;;;;;5049366;28;20021;-89
2023/08/30 06:22:57;;;;;;;2.63;1.02;;;11.90;99.90;;;;;;5049136;28;20021;-88
2023/08/30 06:25:23;;;;;;;3.92;1.00;;;11.90;99.90;;;;;;5048517;28;20081;-88
2023/08/30 06:27:57;;;;;;;4.32;0.88;;;11.90;99.90;;;;;;5050113;28;20033;-88
2023/08/30 06:30:23;;;;;;;3.25;1.20;;;12.00;99.90;;;;;;5048865;28;20039;-88
2023/08/30 06:32:49;;;;;;;3.13;0.75;;;12.00;99.90;;;;;;5049954;28;20554;-88
2023/08/30 06:35:15;;;;;;;3.53;0.98;;;12.10;99.90;;;;;;5048291;28;20029;-88
2023/08/30 06:37:40;;;;;;;2.20;0.93;;;12.10;99.90;;;;;;5050095;28;20021;-88
2023/08/30 06:40:07;;;;;;;4.18;0.90;;;12.10;99.90;;;;;;5048943;28;20025;-87
2023/08/30 06:42:32;;;;;;;2.03;0.90;;;12.20;99.90;;;;;;5048982;28;20060;-88
2023/08/30 06:44:58;;;;;;;3.08;1.02;;;12.20;99.90;;;;;;5048606;28;20077;-89
2023/08/30 06:47:25;;;;;;;2.55;0.70;;;12.20;99.90;;;;;;5050278;27;20045;-88
2023/08/30 06:49:51;;;;;;;2.97;0.90;;;12.30;99.90;;;;;;5048812;28;20029;-88
2023/08/30 06:52:16;;;;;;;3.97;1.00;;;12.30;99.90;;;;;;5049979;28;20025;-89
2023/08/30 06:54:42;;;;;;;7.20;2.03;;;12.30;99.90;;;;;;5050145;28;20484;-88
2023/08/30 06:57:08;;;;;;;3.50;0.88;;;12.30;99.90;;;;;;5050242;28;20096;-89
2023/08/30 06:59:34;;;;;;;2.78;0.70;;;12.30;99.90;;;;;;5048910;28;20032;-88
2023/08/30 07:02:00;;;;;;;2.40;0.73;;;12.40;99.90;;;;;;5050934;28;20029;-88
2023/08/30 07:04:25;;;;;;;1.45;0.60;;;12.40;99.90;;;;;;5052347;28;20109;-88
2023/08/30 07:06:51;;;;;;;3.22;0.90;;;12.50;99.90;;;;;;5049786;28;20056;-89
2023/08/30 07:09:17;;;;;;;4.50;0.75;;;12.50;99.90;;;;;;5049871;28;20040;-88
2023/08/30 07:11:47;;;;;;;2.72;1.05;;;12.60;99.90;;;;;;5050129;28;20029;-89
2023/08/30 07:14:14;;;;;;;2.95;0.75;;;12.60;99.90;;;;;;5048459;28;20059;-89
2023/08/30 07:16:40;;;;;;;5.22;0.77;;;12.60;99.90;;;;;;5048772;28;20025;-89
2023/08/30 07:19:06;;;;;;;2.10;0.90;;;12.70;99.90;;;;;;5048696;28;20025;-89
2023/08/30 07:21:32;;;;;;;2.75;0.65;;;12.70;99.90;;;;;;5049793;28;20035;-89
2023/08/30 07:23:58;;;;;;;0.50;0.47;;;12.80;99.90;;;;;;5048822;28;20379;-89
2023/08/30 07:26:24;;;;;;;1.17;0.50;;;12.80;99.90;;;;;;5048688;28;20108;-89
2023/08/30 07:28:49;;;;;;;0.60;0.43;;;12.80;99.90;;;;;;5048324;28;20416;-88
2023/08/30 07:31:18;;;;;;;1.35;0.50;;;12.70;99.90;;;;;;5049483;28;20021;-89
2023/08/30 07:33:44;;;;;;;2.83;0.50;;;12.80;99.90;;;;;;5048561;28;20078;-89
2023/08/30 07:36:11;;;;;;;1.58;0.60;;;12.80;99.90;;;;;;5049209;28;20044;-88
2023/08/30 07:38:37;;;;;;;1.70;0.68;;;12.80;99.90;;;;;;5050894;28;20070;-88
2023/08/30 07:41:02;;;;;;;2.75;0.80;;;12.90;99.90;;;;;;5051244;28;20453;-87
2023/08/30 07:43:28;;;;;;;4.18;0.68;;;13.00;99.90;;;;;;5051532;28;20360;-88
2023/08/30 07:45:53;;;;;;;2.40;0.70;;;13.00;99.90;;;;;;5051358;28;20045;-89
2023/08/30 07:48:19;;;;;;;1.00;0.70;;;13.00;99.90;;;;;;5051503;28;20036;-88
2023/08/30 07:50:45;;;;;;;3.88;0.90;;;13.00;99.90;;;;;;5052369;28;20048;-87
2023/08/30 07:53:12;;;;;;;3.92;0.85;;;13.00;99.90;;;;;;5051625;28;20495;-88
2023/08/30 07:55:37;;;;;;;2.22;0.90;;;13.00;99.90;;;;;;5051633;28;20033;-89
2023/08/30 07:58:03;;;;;;;3.50;0.98;;;13.00;99.90;;;;;;5051432;28;20111;-87
2023/08/30 08:00:29;;;;;;;1.02;0.50;;;12.90;99.90;;;;;;5052648;28;20025;-87
2023/08/30 08:02:55;;;;;;;1.33;0.80;;;12.90;99.90;;;;;;5050968;28;20029;-88
2023/08/30 08:05:21;;;;;;;1.88;0.60;;;12.90;99.90;;;;;;5051310;28;20028;-89
2023/08/30 08:07:53;;;;;;;0.82;0.60;;;12.90;99.90;;;;;;5053136;28;20379;-91
2023/08/30 08:10:19;;;;;;;0.60;0.60;;;12.90;99.90;;;;;;5053589;28;20683;-90
2023/08/30 08:12:45;;;;;;;1.52;0.70;;;12.90;99.90;;;;;;5052137;28;20037;-90
2023/08/30 08:15:10;;;;;;;3.03;0.75;;;12.90;99.90;;;;;;5051244;28;20090;-89
2023/08/30 08:17:36;;;;;;;0.75;0.70;;;12.90;99.90;;;;;;5051475;28;20021;-89
2023/08/30 08:20:05;;;;;;;3.97;0.70;;;12.90;99.90;;;;;;5051568;28;20059;-90
2023/08/30 08:22:30;;;;;;;2.42;0.68;;;12.90;99.90;;;;;;5051200;28;20054;-89
2023/08/30 08:24:57;;;;;;;3.72;0.73;;;12.90;99.90;;;;;;5051100;28;20033;-89
2023/08/30 08:27:24;;;;;;;2.92;0.80;;;12.90;99.90;;;;;;5051255;28;20078;-88
2023/08/30 08:29:50;;;;;;;3.72;0.90;;;12.90;99.90;;;;;;5051975;28;20029;-89
2023/08/30 08:32:16;;;;;;;6.47;0.90;;;13.00;99.90;;;;;;5052186;28;20033;-89
2023/08/30 08:34:41;;;;;;;5.20;1.15;;;13.00;99.90;;;;;;5050912;28;20511;-90
2023/08/30 08:37:07;;;;;;;3.70;1.20;;;13.10;99.90;;;;;;5051068;28;20502;-89
2023/08/30 08:39:33;;;;;;;8.82;1.80;;;13.10;99.90;;;;;;5051187;28;20487;-90
2023/08/30 08:42:01;;;;;;;4.38;1.65;;;13.10;99.90;;;;;;5051261;28;20017;-90
2023/08/30 08:44:28;;;;;;;6.40;1.52;;;13.20;99.90;;;;;;5052948;28;20055;-90
2023/08/30 08:46:54;;;;;;;5.82;1.95;;;13.30;99.90;;;;;;5055024;28;20033;-90
2023/08/30 08:49:20;;;;;;;5.30;1.42;;;13.50;99.90;;;;;;5055158;28;20021;-90
2023/08/30 08:51:46;;;;;;;7.03;1.50;;;13.60;99.90;;;;;;5053669;28;20085;-91
2023/08/30 08:54:13;;;;;;;4.38;1.40;;;13.70;99.90;;;;;;5052669;28;20025;-91
2023/08/30 08:56:39;;;;;;;8.95;1.73;;;13.80;99.90;;;;;;5052510;28;20040;-92
2023/08/30 08:59:06;;;;;;;2.70;1.58;;;13.90;99.90;;;;;;5052343;28;20021;-90
2023/08/30 09:01:35;;;;;;;6.47;1.50;;;13.90;99.90;;;;;;5051408;28;20029;-90
2023/08/30 09:04:07;;;;;;;4.15;1.00;;;13.90;99.90;;;;;;5050893;28;20025;-90
2023/08/30 09:06:33;;;;;;;5.53;1.33;;;14.00;99.90;;;;;;5051088;28;20086;-90
2023/08/30 09:08:59;;;;;;;4.28;1.38;;;14.00;99.90;;;;;;5055185;28;20029;-90
2023/08/30 09:11:24;;;;;;;4.68;1.42;;;14.00;99.90;;;;;;5056766;28;20031;-90
2023/08/30 09:13:50;;;;;;;2.95;1.35;;;14.10;99.90;;;;;;5053064;28;20028;-91
2023/08/30 09:16:16;;;;;;;4.60;1.23;;;14.10;99.90;;;;;;5050785;28;20082;-91
2023/08/30 09:18:44;;;;;;;5.43;1.83;;;14.10;99.90;;;;;;5050997;28;20032;-91
2023/08/30 09:21:11;;;;;;;2.03;1.00;;;14.10;99.90;;;;;;5050821;28;20033;-91
2023/08/30 09:23:37;;;;;;;2.42;0.93;;;14.10;99.90;;;;;;5050620;28;20108;-91
2023/08/30 09:26:04;;;;;;;4.15;1.00;;;14.10;99.90;;;;;;5050583;28;20391;-92
2023/08/30 09:28:31;;;;;;;3.22;1.17;;;14.10;99.90;;;;;;5050269;28;20056;-91
2023/08/30 09:31:00;;;;;;;2.67;0.95;;;14.20;99.90;;;;;;5050364;28;20073;-92
2023/08/30 09:33:33;;;;;;;6.82;1.25;;;14.40;99.90;;;;;;5050566;28;20025;-92
2023/08/30 09:35:59;;;;;;;3.63;1.08;;;14.60;99.90;;;;;;5050348;28;20048;-92
2023/08/30 09:38:25;;;;;;;4.25;1.20;;;14.70;99.90;;;;;;5050247;28;20021;-91
2023/08/30 09:40:51;;;;;;;6.18;1.17;;;14.80;99.90;;;;;;5050444;28;20021;-92
2023/08/30 09:43:24;;;;;;;8.18;1.70;;;14.90;99.90;;;;;;5050774;28;20021;-91
2023/08/30 09:45:51;;;;;;;12.60;1.25;;;14.90;99.90;;;;;;5049986;28;20045;-91
2023/08/30 09:48:24;;;;;;;4.50;1.80;;;14.80;99.90;;;;;;5050523;28;20495;-91
2023/08/30 09:50:54;;;;;;;5.60;1.08;;;15.00;99.90;;;;;;5050132;28;20033;-91
2023/08/30 09:53:25;;;;;;;3.05;1.30;;;15.20;99.90;;;;;;5050850;28;20025;-92
2023/08/30 09:55:52;;;;;;;6.70;1.40;;;15.50;99.90;;;;;;5051497;28;20124;-90
2023/08/30 09:58:20;;;;;;;5.38;1.20;;;15.70;99.90;;;;;;5050261;28;20021;-91
2023/08/30 10:00:46;;;;;;;6.03;1.42;;;15.90;99.90;;;;;;5049380;28;20033;-90
2023/08/30 10:03:12;;;;;;;5.13;0.98;;;16.20;99.90;;;;;;5050249;28;20054;-89
2023/08/30 10:05:40;;;;;;;6.80;1.05;;;16.30;99.90;;;;;;5050155;28;20123;-91
2023/08/30 10:08:09;;;;;;;7.63;1.10;;;16.50;99.90;;;;;;5050099;28;20108;-89
2023/08/30 10:10:35;;;;;;;5.97;1.50;;;16.50;99.90;;;;;;5050347;28;20037;-92
2023/08/30 10:13:01;;;;;;;6.93;1.50;;;16.40;99.90;;;;;;5049993;28;20021;-88
2023/08/30 10:15:29;;;;;;;3.95;1.85;;;16.40;99.90;;;;;;5050617;28;20029;-90
2023/08/30 10:17:58;;;;;;;3.95;0.90;;;16.40;99.90;;;;;;5050069;28;20471;-91
2023/08/30 10:20:26;;;;;;;5.00;1.35;;;16.40;99.90;;;;;;5049828;28;20025;-89
2023/08/30 10:22:54;;;;;;;4.05;0.90;;;16.50;99.90;;;;;;5049494;28;20122;-91
2023/08/30 10:25:22;;;;;;;3.97;1.02;;;16.80;99.90;;;;;;5049750;28;20192;-92
2023/08/30 10:27:49;;;;;;;4.80;1.10;;;17.00;99.90;;;;;;5049435;28;20471;-93
2023/08/30 10:30:18;;;;;;;1.63;0.70;;;17.20;99.90;;;;;;5049707;28;20025;-92
2023/08/30 10:32:44;;;;;;;3.17;1.00;;;17.30;99.90;;;;;;5049562;28;20025;-92
2023/08/30 10:35:15;;;;;;;5.40;0.80;;;17.50;99.90;;;;;;5049653;28;20085;-91
2023/08/30 10:37:40;;;;;;;3.85;0.82;;;17.60;99.90;;;;;;5052551;28;20528;-92
2023/08/30 10:40:07;;;;;;;2.83;0.70;;;17.80;99.90;;;;;;5053180;28;20137;-92
2023/08/30 10:42:33;;;;;;;6.07;0.85;;;17.90;99.90;;;;;;5051534;28;20025;-91
2023/08/30 10:45:02;;;;;;;3.22;0.70;;;18.10;99.90;;;;;;5052163;28;20511;-91
2023/08/30 10:47:29;;;;;;;8.05;1.80;;;18.30;99.90;;;;;;5050364;28;20021;-92
2023/08/30 10:50:00;;;;;;;4.03;0.70;;;18.40;98.40;;;;;;5049757;28;20037;-91
2023/08/30 10:52:26;;;;;;;3.88;0.77;;;18.50;96.10;;;;;;5049397;28;20045;-91
2023/08/30 10:54:52;;;;;;;2.15;1.27;;;18.50;94.50;;;;;;5049111;28;20120;-89
2023/08/30 10:57:21;;;;;;;1.52;0.60;;;18.60;93.60;;;;;;5049160;28;20021;-90
2023/08/30 11:00:13;;;;;;;1.52;0.70;;;18.70;93.40;;;;;;5049339;28;20453;-92
2023/08/30 11:02:46;;;;;;;2.05;0.70;;;18.90;92.30;;;;;;5049120;28;20025;-91
2023/08/30 11:05:11;;;;;;;2.53;0.70;;;19.00;90.50;;;;;;5049110;28;20021;-90
2023/08/30 11:07:37;;;;;;;2.17;0.73;;;19.10;90.10;;;;;;5049132;28;20038;-90
2023/08/30 11:10:07;;;;;;;3.20;0.70;;;19.20;90.10;;;;;;5048789;28;20387;-90
2023/08/30 11:12:33;;;;;;;3.07;1.57;;;19.20;89.30;;;;;;5051753;28;20053;-90
2023/08/30 11:14:58;;;;;;;3.55;0.85;;;19.40;89.10;;;;;;5052190;28;20368;-91
2023/08/30 11:17:27;;;;;;;4.13;0.68;;;19.50;88.60;;;;;;5053436;28;20059;-91
2023/08/30 11:20:09;;;;;;;2.83;0.60;;;19.50;87.70;;;;;;5055213;28;20033;-91
2023/08/30 11:22:41;;;;;;;8.43;1.10;;;19.20;85.50;;;;;;5052384;28;20078;-90
2023/08/30 11:25:12;;;;;;;3.47;0.68;;;19.10;86.20;;;;;;5052252;28;20040;-91
2023/08/30 11:27:38;;;;;;;2.03;0.75;;;19.00;86.30;;;;;;5052099;28;20017;-88
2023/08/30 11:30:05;;;;;;;2.00;0.60;;;18.90;86.10;;;;;;5052120;28;20037;-89
2023/08/30 11:32:44;;;;;;;1.25;0.30;;;18.80;85.80;;;;;;5052296;28;20021;-89
2023/08/30 11:35:10;;;;;;;2.83;0.90;;;18.60;84.50;;;;;;5052003;28;20128;-89
2023/08/30 11:37:36;;;;;;;2.10;0.90;;;18.40;84.30;;;;;;5052269;28;20045;-89
2023/08/30 11:40:03;;;;;;;3.78;0.68;;;18.60;84.90;;;;;;5051934;28;20033;-89
2023/08/30 11:42:30;;;;;;;2.00;0.70;;;18.90;85.40;;;;;;5052124;28;20045;-90
2023/08/30 11:44:58;;;;;;;2.88;0.75;;;19.30;84.80;;;;;;5052046;28;20049;-89
2023/08/30 11:47:24;;;;;;;3.13;0.75;;;19.60;83.60;;;;;;5051975;28;20049;-89
2023/08/30 11:49:53;;;;;;;2.97;0.80;;;19.80;82.70;;;;;;5052189;28;20029;-90
2023/08/30 11:52:22;;;;;;;5.55;0.90;;;19.90;82.50;;;;;;5054090;28;20025;-90
2023/08/30 11:54:49;;;;;;;3.13;0.80;;;20.00;82.00;;;;;;5053435;28;20029;-90
2023/08/30 11:57:18;;;;;;;1.33;0.70;;;20.00;80.70;;;;;;5057979;28;20029;-92
2023/08/30 11:59:44;;;;;;;5.07;0.90;;;20.00;79.50;;;;;;5059719;28;20506;-91
2023/08/30 12:02:12;;;;;;;1.65;0.70;;;19.80;78.30;;;;;;5058840;28;20060;-90
2023/08/30 12:04:42;;;;;;;2.00;0.82;;;19.60;77.90;;;;;;5058698;28;20028;-91
2023/08/30 12:07:07;;;;;;;3.80;1.15;;;19.40;78.00;;;;;;5056581;28;20033;-90
2023/08/30 12:09:34;;;;;;;2.40;0.73;;;19.30;78.60;;;;;;5053418;28;20025;-90
2023/08/30 12:12:09;;;;;;;3.85;1.10;;;19.20;78.60;;;;;;5052797;28;20028;-92
2023/08/30 12:14:35;;;;;;;2.08;0.82;;;19.10;79.00;;;;;;5052667;28;20120;-92
2023/08/30 12:17:01;;;;;;;1.85;0.63;;;19.40;79.30;;;;;;5053207;28;20021;-93
2023/08/30 12:19:28;;;;;;;5.10;1.10;;;19.70;79.00;;;;;;5052741;28;20088;-90
2023/08/30 12:21:54;;;;;;;1.55;0.90;;;19.90;77.90;;;;;;5052430;28;20051;-91
2023/08/30 12:24:19;;;;;;;1.48;0.90;;;20.20;77.50;;;;;;5051864;28;20033;-90
2023/08/30 12:26:45;;;;;;;4.80;1.08;;;20.50;77.20;;;;;;5051851;28;20184;-91
2023/08/30 12:29:11;;;;;;;2.25;0.63;;;20.90;76.10;;;;;;5052110;28;20017;-91
2023/08/30 12:31:37;;;;;;;4.00;1.25;;;21.00;74.20;;;;;;5052205;28;20036;-90
2023/08/30 12:34:03;;;;;;;12.50;1.13;;;20.80;73.30;;;;;;5051536;28;20052;-90
2023/08/30 12:36:29;;;;;;;4.03;1.77;;;20.60;73.30;;;;;;5051609;28;20033;-91
2023/08/30 12:38:54;;;;;;;4.95;1.65;;;20.40;73.30;;;;;;5051456;28;20076;-90
2023/08/30 12:41:22;;;;;;;9.50;4.43;;;20.20;73.60;;;;;;5051767;28;20039;-91
2023/08/30 12:43:48;;;;;;;4.43;2.53;;;19.90;73.50;;;;;;5051511;28;20030;-92